| time (UTC) | temp F | wind direction | speed knots | gust knots | rain 1hr in | rain 24hr in | rain mn in | humidity % | barometer mb |
| 20260507212012 | 60 | 214 | 0.0 | 0.9 | 0.00 | 0.00 | 0.00 | 36 | 1034.2 |
| 20260507211509 | 59 | 238 | 0.0 | 0.9 | 0.00 | 0.00 | 0.00 | 37 | 1034.3 |
| 20260507211005 | 59 | 214 | 0.9 | 0.9 | 0.00 | 0.00 | 0.00 | 40 | 1034.4 |
| 20260507210502 | 60 | 261 | 0.9 | 2.6 | 0.00 | 0.00 | 0.00 | 37 | 1034.2 |
| 20260507205959 | 60 | 195 | 0.0 | 0.0 | 0.00 | 0.00 | 0.00 | 37 | 1034.2 |
| 20260507205455 | 59 | 199 | 0.0 | 0.9 | 0.00 | 0.00 | 0.00 | 37 | 1034.4 |
| 20260507204952 | 61 | 231 | 0.0 | 0.0 | 0.00 | 0.00 | 0.00 | 35 | 1034.2 |
| 20260507204448 | 61 | 185 | 0.9 | 1.7 | 0.00 | 0.00 | 0.00 | 36 | 1034.1 |
| 20260507203946 | 61 | 214 | 3.5 | 6.1 | 0.00 | 0.00 | 0.00 | 37 | 1033.9 |
| 20260507203444 | 62 | 178 | 1.7 | 1.7 | 0.00 | 0.00 | 0.00 | 37 | 1033.9 |
| 20260507202940 | 61 | 203 | 0.0 | 0.0 | 0.00 | 0.00 | 0.00 | 36 | 1034.2 |
| 20260507202436 | 61 | 218 | 0.0 | 0.0 | 0.00 | 0.00 | 0.00 | 37 | 1034.1 |
| 20260507201932 | 62 | 199 | 0.9 | 1.7 | 0.00 | 0.00 | 0.00 | 35 | 1034.3 |
| 20260507201427 | 61 | 249 | 1.7 | 1.7 | 0.00 | 0.00 | 0.00 | 36 | 1034.5 |
| 20260507200924 | 62 | 271 | 2.6 | 4.3 | 0.00 | 0.00 | 0.00 | 36 | 1034.2 |
| 20260507200420 | 62 | 158 | 0.9 | 2.6 | 0.00 | 0.00 | 0.00 | 38 | 1034.1 |
| 20260507195916 | 62 | 158 | 0.9 | 1.7 | 0.00 | 0.00 | 0.00 | 36 | 1034.0 |
| 20260507195414 | 61 | 286 | 2.6 | 2.6 | 0.00 | 0.00 | 0.00 | 36 | 1034.1 |
| 20260507194911 | 63 | 188 | 0.0 | 0.0 | 0.00 | 0.00 | 0.00 | 35 | 1034.1 |
| 20260507194407 | 60 | 200 | 1.7 | 2.6 | 0.00 | 0.00 | 0.00 | 39 | 1034.4 |
| 20260507193903 | 59 | 204 | 1.7 | 4.3 | 0.00 | 0.00 | 0.00 | 37 | 1034.1 |
| 20260507193400 | 60 | 260 | 0.0 | 0.9 | 0.00 | 0.00 | 0.00 | 39 | 1034.3 |
| 20260507192857 | 62 | 312 | 1.7 | 1.7 | 0.00 | 0.00 | 0.00 | 39 | 1034.4 |
| 20260507192353 | 61 | 215 | 0.9 | 0.9 | 0.00 | 0.00 | 0.00 | 39 | 1034.3 |
| 20260507191850 | 58 | 174 | 0.9 | 0.9 | 0.00 | 0.00 | 0.00 | 40 | 1034.5 |
| 20260507191346 | 59 | 194 | 0.0 | 0.0 | 0.00 | 0.00 | 0.00 | 42 | 1034.4 |
| 20260507190843 | 61 | 306 | 0.9 | 1.7 | 0.00 | 0.00 | 0.00 | 39 | 1034.3 |
| 20260507190341 | 60 | 278 | 2.6 | 2.6 | 0.00 | 0.00 | 0.00 | 39 | 1034.7 |
| 20260507185839 | 59 | 206 | 0.0 | 0.0 | 0.00 | 0.00 | 0.00 | 41 | 1034.6 |
| 20260507185336 | 60 | 180 | 1.7 | 1.7 | 0.00 | 0.00 | 0.00 | 41 | 1034.7 |
| 20260507184833 | 61 | 320 | 1.7 | 2.6 | 0.00 | 0.00 | 0.00 | 40 | 1034.9 |
| 20260507184331 | 59 | 206 | 0.9 | 0.9 | 0.00 | 0.00 | 0.00 | 42 | 1034.8 |
| 20260507183827 | 59 | 227 | 0.0 | 0.0 | 0.00 | 0.00 | 0.00 | 44 | 1034.9 |
| 20260507183325 | 61 | 233 | 0.9 | 1.7 | 0.00 | 0.00 | 0.00 | 39 | 1034.9 |
| 20260507182822 | 61 | 148 | 0.0 | 0.0 | 0.00 | 0.00 | 0.00 | 38 | 1034.9 |
| 20260507182318 | 62 | 200 | 0.0 | 0.0 | 0.00 | 0.00 | 0.00 | 41 | 1034.8 |
| 20260507181814 | 62 | 255 | 0.9 | 0.9 | 0.00 | 0.00 | 0.00 | 39 | 1034.9 |
| 20260507181310 | 62 | 217 | 2.6 | 4.3 | 0.00 | 0.00 | 0.00 | 40 | 1034.8 |
| 20260507180807 | 61 | 162 | 2.6 | 4.3 | 0.00 | 0.00 | 0.00 | 43 | 1035.1 |
| 20260507180304 | 62 | 246 | 0.9 | 0.9 | 0.00 | 0.00 | 0.00 | 39 | 1035.0 |
| 20260507175759 | 60 | 199 | 0.0 | 0.9 | 0.00 | 0.00 | 0.00 | 43 | 1034.8 |
| 20260507175257 | 57 | 203 | 0.9 | 0.9 | 0.00 | 0.00 | 0.00 | 41 | 1035.0 |
| 20260507174754 | 60 | 218 | 5.2 | 7.8 | 0.00 | 0.00 | 0.00 | 37 | 1034.9 |
| 20260507174252 | 61 | 176 | 1.7 | 1.7 | 0.00 | 0.00 | 0.00 | 39 | 1034.7 |
| 20260507173749 | 60 | 191 | 3.5 | 5.2 | 0.00 | 0.00 | 0.00 | 42 | 1035.0 |
| 20260507173246 | 60 | 207 | 0.0 | 0.9 | 0.00 | 0.00 | 0.00 | 39 | 1035.0 |
| 20260507172742 | 61 | 244 | 2.6 | 2.6 | 0.00 | 0.00 | 0.00 | 41 | 1035.0 |
| 20260507172240 | 61 | 322 | 2.6 | 4.3 | 0.00 | 0.00 | 0.00 | 38 | 1035.1 |
| 20260507171735 | 62 | 275 | 2.6 | 4.3 | 0.00 | 0.00 | 0.00 | 38 | 1034.8 |
| 20260507171232 | 61 | 189 | 1.7 | 1.7 | 0.00 | 0.00 | 0.00 | 42 | 1035.0 |
| 20260507170729 | 60 | 250 | 6.1 | 7.8 | 0.00 | 0.00 | 0.00 | 40 | 1035.0 |
| 20260507170226 | 60 | 214 | 3.5 | 7.0 | 0.00 | 0.00 | 0.00 | 44 | 1034.9 |
| 20260507165721 | 61 | 248 | 4.3 | 7.8 | 0.00 | 0.00 | 0.00 | 43 | 1035.1 |
| 20260507165218 | 60 | 187 | 0.0 | 0.9 | 0.00 | 0.00 | 0.00 | 45 | 1035.2 |
| 20260507164714 | 62 | 184 | 0.9 | 0.9 | 0.00 | 0.00 | 0.00 | 45 | 1035.3 |
| 20260507164211 | 61 | 235 | 0.0 | 0.9 | 0.00 | 0.00 | 0.00 | 48 | 1035.2 |
| 20260507163708 | 61 | 259 | 5.2 | 7.0 | 0.00 | 0.00 | 0.00 | 46 | 1035.0 |
| 20260507163206 | 62 | 242 | 0.0 | 0.0 | 0.00 | 0.00 | 0.00 | 44 | 1035.3 |
| 20260507162702 | 60 | 185 | 0.0 | 0.9 | 0.00 | 0.00 | 0.00 | 48 | 1035.6 |
| 20260507162158 | 60 | 194 | 0.0 | 0.0 | 0.00 | 0.00 | 0.00 | 43 | 1035.6 |
| 20260507161655 | 61 | 273 | 3.5 | 4.3 | 0.00 | 0.00 | 0.00 | 42 | 1035.7 |
| 20260507161151 | 60 | 225 | 0.0 | 0.9 | 0.00 | 0.00 | 0.00 | 48 | 1035.5 |
| 20260507160647 | 60 | 196 | 0.0 | 0.0 | 0.00 | 0.00 | 0.00 | 48 | 1035.4 |
| 20260507160144 | 59 | 265 | 0.9 | 1.7 | 0.00 | 0.00 | 0.00 | 48 | 1035.5 |
| 20260507155639 | 58 | 219 | 0.0 | 0.0 | 0.00 | 0.00 | 0.00 | 54 | 1035.5 |
| 20260507155136 | 59 | 278 | 0.0 | 0.0 | 0.00 | 0.00 | 0.00 | 56 | 1035.7 |
| 20260507154633 | 59 | 249 | 0.9 | 0.9 | 0.00 | 0.00 | 0.00 | 54 | 1035.7 |
| 20260507154131 | 59 | 195 | 0.0 | 0.0 | 0.00 | 0.00 | 0.00 | 58 | 1035.5 |
| 20260507153626 | 57 | 194 | 0.0 | 0.0 | 0.00 | 0.00 | 0.00 | 60 | 1036.0 |
| 20260507153124 | 59 | 235 | 3.5 | 4.3 | 0.00 | 0.00 | 0.00 | 61 | 1035.7 |
| 20260507152620 | 57 | 226 | 0.0 | 0.0 | 0.00 | 0.00 | 0.00 | 62 | 1036.1 |
| 20260507152116 | 57 | 210 | 0.9 | 1.7 | 0.00 | 0.00 | 0.00 | 67 | 1036.2 |
| 20260507151612 | 56 | 228 | 1.7 | 2.6 | 0.00 | 0.00 | 0.00 | 67 | 1036.1 |
| 20260507151109 | 55 | 203 | 0.9 | 1.7 | 0.00 | 0.00 | 0.00 | 70 | 1036.0 |
| 20260507150606 | 56 | 221 | 0.9 | 1.7 | 0.00 | 0.00 | 0.00 | 67 | 1036.1 |
| 20260507145558 | 57 | 214 | 0.0 | 0.9 | 0.00 | 0.00 | 0.00 | 64 | 1036.3 |
| 20260507145056 | 57 | 206 | 0.0 | 0.0 | 0.00 | 0.00 | 0.00 | 67 | 1036.3 |
| 20260507144552 | 55 | 215 | 0.9 | 1.7 | 0.00 | 0.00 | 0.00 | 63 | 1036.2 |
| 20260507144050 | 54 | 208 | 0.0 | 0.0 | 0.00 | 0.00 | 0.00 | 70 | 1036.3 |
| 20260507143546 | 54 | 225 | 0.0 | 0.0 | 0.00 | 0.00 | 0.00 | 68 | 1036.2 |
| 20260507143044 | 54 | 221 | 0.9 | 1.7 | 0.00 | 0.00 | 0.00 | 69 | 1036.2 |
| 20260507142539 | 55 | 242 | 1.7 | 1.7 | 0.00 | 0.00 | 0.00 | 69 | 1036.2 |
| 20260507142036 | 55 | 205 | 0.0 | 0.0 | 0.00 | 0.00 | 0.00 | 67 | 1036.2 |
| 20260507141532 | 54 | 194 | 0.0 | 0.0 | 0.00 | 0.00 | 0.00 | 73 | 1036.2 |
| 20260507141029 | 54 | 210 | 0.9 | 0.9 | 0.00 | 0.00 | 0.00 | 72 | 1036.1 |
| 20260507140526 | 56 | 213 | 0.0 | 0.9 | 0.00 | 0.00 | 0.00 | 70 | 1036.2 |
| 20260507140024 | 55 | 190 | 0.9 | 1.7 | 0.00 | 0.00 | 0.00 | 69 | 1036.2 |
| 20260507135520 | 55 | 214 | 0.0 | 0.0 | 0.00 | 0.00 | 0.00 | 69 | 1036.3 |
| 20260507135018 | 56 | 205 | 0.9 | 1.7 | 0.00 | 0.00 | 0.00 | 71 | 1036.4 |
| 20260507134514 | 55 | 187 | 0.0 | 0.0 | 0.00 | 0.00 | 0.00 | 72 | 1036.1 |
| 20260507134010 | 55 | 205 | 0.0 | 0.9 | 0.00 | 0.00 | 0.00 | 73 | 1036.3 |
| 20260507133506 | 54 | 207 | 0.9 | 0.9 | 0.00 | 0.00 | 0.00 | 74 | 1036.2 |
| 20260507133005 | 55 | 228 | 0.9 | 0.9 | 0.00 | 0.00 | 0.00 | 74 | 1036.5 |
| 20260507132501 | 54 | 177 | 0.9 | 0.9 | 0.00 | 0.00 | 0.00 | 73 | 1036.4 |
| 20260507131956 | 55 | 233 | 0.9 | 0.9 | 0.00 | 0.00 | 0.00 | 73 | 1036.5 |
| 20260507131454 | 54 | 203 | 0.0 | 0.9 | 0.00 | 0.00 | 0.00 | 74 | 1036.5 |
| 20260507130951 | 53 | 232 | 1.7 | 2.6 | 0.00 | 0.00 | 0.00 | 75 | 1036.4 |
| 20260507130448 | 54 | 174 | 2.6 | 2.6 | 0.00 | 0.00 | 0.00 | 75 | 1036.5 |
| 20260507125946 | 53 | 191 | 0.0 | 0.0 | 0.00 | 0.00 | 0.00 | 78 | 1036.3 |
| 20260507125444 | 53 | 211 | 0.0 | 0.9 | 0.00 | 0.00 | 0.00 | 79 | 1036.4 |
| 20260507124941 | 53 | 221 | 0.9 | 1.7 | 0.00 | 0.00 | 0.00 | 77 | 1036.3 |
| 20260507124437 | 52 | 192 | 0.0 | 0.9 | 0.00 | 0.00 | 0.00 | 79 | 1036.5 |
| 20260507123936 | 52 | 172 | 0.0 | 0.0 | 0.00 | 0.00 | 0.00 | 78 | 1036.2 |
| 20260507123433 | 51 | 255 | 1.7 | 1.7 | 0.00 | 0.00 | 0.00 | 80 | 1036.4 |
| 20260507122929 | 51 | 186 | 0.0 | 0.9 | 0.00 | 0.00 | 0.00 | 80 | 1036.7 |
| 20260507122424 | 51 | 170 | 2.6 | 4.3 | 0.00 | 0.00 | 0.00 | 80 | 1036.7 |
| 20260507121921 | 50 | 174 | 0.0 | 0.0 | 0.00 | 0.00 | 0.00 | 82 | 1036.9 |
| 20260507121416 | 50 | 187 | 0.9 | 0.9 | 0.00 | 0.00 | 0.00 | 85 | 1036.7 |
| 20260507120913 | 49 | 184 | 0.0 | 0.0 | 0.00 | 0.00 | 0.00 | 86 | 1036.6 |
| 20260507120410 | 48 | 172 | 0.9 | 1.7 | 0.00 | 0.00 | 0.00 | 85 | 1036.7 |
| 20260507115906 | 48 | 220 | 0.0 | 0.0 | 0.00 | 0.00 | 0.00 | 88 | 1036.7 |
| 20260507115402 | 47 | 206 | 0.0 | 0.9 | 0.00 | 0.00 | 0.00 | 88 | 1036.8 |
| 20260507114858 | 47 | 205 | 0.0 | 0.9 | 0.00 | 0.00 | 0.00 | 91 | 1036.5 |
| 20260507114355 | 46 | 188 | 0.0 | 0.0 | 0.00 | 0.00 | 0.00 | 91 | 1036.6 |
| 20260507113852 | 46 | 199 | 0.0 | 0.0 | 0.00 | 0.00 | 0.00 | 93 | 1036.4 |
| 20260507113349 | 45 | 190 | 0.0 | 0.0 | 0.00 | 0.00 | 0.00 | 94 | 1036.4 |
| 20260507112846 | 45 | 187 | 0.0 | 0.0 | 0.00 | 0.00 | 0.00 | 96 | 1036.6 |
| 20260507112343 | 45 | 211 | 0.0 | 0.0 | 0.00 | 0.00 | 0.00 | 96 | 1036.5 |
| 20260507111841 | 45 | 197 | 0.0 | 0.0 | 0.00 | 0.00 | 0.00 | 96 | 1036.4 |
| 20260507111338 | 44 | 213 | 0.0 | 0.9 | 0.00 | 0.00 | 0.00 | 97 | 1036.5 |
| 20260507110834 | 44 | 221 | 0.0 | 0.0 | 0.00 | 0.00 | 0.00 | 97 | 1036.3 |
| 20260507110330 | 44 | 202 | 0.0 | 0.0 | 0.00 | 0.00 | 0.00 | 97 | 1036.5 |
| 20260507105827 | 44 | 193 | 0.0 | 0.0 | 0.00 | 0.00 | 0.00 | 96 | 1036.4 |
| 20260507105324 | 44 | 188 | 0.0 | 0.0 | 0.00 | 0.00 | 0.00 | 96 | 1036.0 |
| 20260507104821 | 44 | 180 | 0.0 | 0.0 | 0.00 | 0.00 | 0.00 | 96 | 1036.2 |
| 20260507104317 | 44 | 194 | 0.0 | 0.0 | 0.00 | 0.00 | 0.00 | 97 | 1036.2 |
| 20260507103813 | 44 | 177 | 0.0 | 0.0 | 0.00 | 0.00 | 0.00 | 97 | 1036.1 |
| 20260507103310 | 44 | 197 | 0.0 | 0.0 | 0.00 | 0.00 | 0.00 | 96 | 1036.1 |
| 20260507102806 | 44 | 198 | 0.0 | 0.0 | 0.00 | 0.00 | 0.00 | 96 | 1036.3 |
| 20260507102306 | 44 | 201 | 0.0 | 0.9 | 0.00 | 0.00 | 0.00 | 96 | 1036.3 |
| 20260507101759 | 44 | 194 | 0.0 | 0.9 | 0.00 | 0.00 | 0.00 | 97 | 1036.1 |
| 20260507101259 | 44 | 203 | 0.0 | 0.0 | 0.00 | 0.00 | 0.00 | 97 | 1035.7 |
| 20260507100756 | 44 | 208 | 0.0 | 0.0 | 0.00 | 0.00 | 0.00 | 97 | 1036.2 |
| 20260507100255 | 44 | 189 | 0.9 | 1.7 | 0.00 | 0.00 | 0.00 | 97 | 1036.2 |
| 20260507095752 | 44 | 204 | 0.0 | 0.9 | 0.00 | 0.00 | 0.00 | 97 | 1036.2 |
| 20260507095249 | 44 | 194 | 0.0 | 0.9 | 0.00 | 0.00 | 0.00 | 97 | 1036.3 |
| 20260507094746 | 44 | 205 | 0.0 | 0.0 | 0.00 | 0.00 | 0.00 | 98 | 1035.7 |
| 20260507094243 | 44 | 202 | 0.9 | 1.7 | 0.00 | 0.00 | 0.00 | 99 | 1036.5 |
| 20260507093739 | 44 | 202 | 0.0 | 0.0 | 0.00 | 0.00 | 0.00 | 99 | 1035.9 |
| 20260507093238 | 44 | 202 | 0.0 | 0.0 | 0.00 | 0.00 | 0.00 | 99 | 1036.3 |
| 20260507092735 | 44 | 205 | 0.0 | 0.0 | 0.00 | 0.00 | 0.00 | 99 | 1035.9 |
| 20260507092231 | 44 | 201 | 0.0 | 0.0 | 0.00 | 0.00 | 0.00 | 99 | 1036.1 |
| 20260507091728 | 44 | 226 | 1.7 | 1.7 | 0.00 | 0.00 | 0.00 | 99 | 1036.0 |
| 20260507091224 | 44 | 196 | 0.9 | 0.9 | 0.00 | 0.00 | 0.00 | 99 | 1036.2 |
| 20260507090720 | 44 | 211 | 0.9 | 0.9 | 0.00 | 0.00 | 0.00 | 99 | 1036.2 |
| 20260507090217 | 44 | 218 | 0.0 | 0.9 | 0.00 | 0.00 | 0.00 | 99 | 1036.2 |
| 20260507085714 | 44 | 204 | 0.9 | 0.9 | 0.00 | 0.00 | 0.00 | 99 | 1035.8 |
| 20260507085211 | 44 | 210 | 0.0 | 0.9 | 0.00 | 0.00 | 0.00 | 99 | 1035.9 |
| 20260507084708 | 44 | 202 | 0.0 | 0.0 | 0.00 | 0.00 | 0.00 | 99 | 1035.8 |
| 20260507084204 | 44 | 193 | 0.0 | 0.0 | 0.00 | 0.00 | 0.00 | 99 | 1035.7 |
| 20260507083702 | 44 | 223 | 1.7 | 2.6 | 0.00 | 0.00 | 0.00 | 99 | 1035.5 |
| 20260507083158 | 44 | 205 | 0.0 | 0.0 | 0.00 | 0.00 | 0.00 | 99 | 1035.8 |
| 20260507082654 | 44 | 176 | 0.0 | 0.0 | 0.00 | 0.00 | 0.00 | 99 | 1035.6 |
| 20260507082150 | 44 | 192 | 0.0 | 0.0 | 0.00 | 0.00 | 0.00 | 99 | 1035.5 |
| 20260507081647 | 44 | 190 | 0.0 | 0.0 | 0.00 | 0.00 | 0.00 | 99 | 1035.4 |
| 20260507081143 | 45 | 189 | 0.0 | 0.0 | 0.00 | 0.00 | 0.00 | 99 | 1035.4 |
| 20260507080640 | 45 | 196 | 0.0 | 0.0 | 0.00 | 0.00 | 0.00 | 99 | 1035.4 |
| 20260507080136 | 45 | 195 | 0.0 | 0.0 | 0.00 | 0.00 | 0.00 | 99 | 1035.8 |
| 20260507075631 | 45 | 195 | 0.0 | 0.0 | 0.00 | 0.00 | 0.00 | 99 | 1035.9 |
| 20260507075128 | 45 | 198 | 0.9 | 0.9 | 0.00 | 0.00 | 0.00 | 99 | 1035.8 |
| 20260507074625 | 45 | 193 | 0.0 | 0.0 | 0.00 | 0.00 | 0.00 | 99 | 1035.7 |
| 20260507074123 | 45 | 244 | 0.0 | 0.0 | 0.00 | 0.00 | 0.00 | 99 | 1035.5 |
| 20260507073619 | 45 | 196 | 0.0 | 0.0 | 0.00 | 0.00 | 0.00 | 99 | 1035.5 |
| 20260507073115 | 45 | 202 | 0.0 | 0.0 | 0.00 | 0.00 | 0.00 | 99 | 1035.3 |
| 20260507072613 | 45 | 187 | 0.0 | 0.0 | 0.00 | 0.00 | 0.00 | 99 | 1035.2 |
| 20260507072110 | 45 | 193 | 0.0 | 0.0 | 0.00 | 0.00 | 0.00 | 99 | 1035.6 |
| 20260507071607 | 45 | 204 | 0.0 | 0.0 | 0.00 | 0.00 | 0.00 | 99 | 1035.4 |
| 20260507071103 | 45 | 136 | 0.0 | 0.0 | 0.00 | 0.00 | 0.00 | 99 | 1035.3 |
| 20260507070601 | 45 | 193 | 0.0 | 0.0 | 0.00 | 0.00 | 0.00 | 99 | 1035.1 |
| 20260507070058 | 46 | 198 | 0.0 | 0.0 | 0.00 | 0.00 | 0.00 | 99 | 1035.3 |
| 20260507065554 | 46 | 196 | 0.0 | 0.0 | 0.00 | 0.00 | 0.00 | 99 | 1035.2 |
| 20260507065051 | 46 | 197 | 1.7 | 2.6 | 0.00 | 0.00 | 0.00 | 99 | 1035.2 |
| 20260507064549 | 46 | 234 | 0.0 | 0.0 | 0.00 | 0.00 | 0.00 | 99 | 1035.5 |
| 20260507064048 | 46 | 220 | 0.0 | 0.9 | 0.00 | 0.00 | 0.00 | 99 | 1035.6 |
| 20260507063544 | 46 | 214 | 0.0 | 0.0 | 0.00 | 0.00 | 0.00 | 99 | 1035.2 |
| 20260507063042 | 46 | 209 | 0.9 | 0.9 | 0.00 | 0.00 | 0.00 | 99 | 1035.3 |
| 20260507062538 | 46 | 204 | 0.0 | 0.0 | 0.00 | 0.00 | 0.00 | 99 | 1035.4 |
| 20260507062036 | 46 | 218 | 0.9 | 0.9 | 0.00 | 0.00 | 0.00 | 99 | 1035.3 |
| 20260507061533 | 46 | 205 | 0.0 | 0.0 | 0.00 | 0.00 | 0.00 | 99 | 1035.4 |
| 20260507061031 | 47 | 172 | 0.9 | 1.7 | 0.00 | 0.00 | 0.00 | 99 | 1035.3 |
| 20260507060529 | 46 | 202 | 0.0 | 0.0 | 0.00 | 0.00 | 0.00 | 99 | 1035.5 |
| 20260507060025 | 47 | 162 | 0.9 | 0.9 | 0.00 | 0.00 | 0.00 | 99 | 1035.5 |
| 20260507055525 | 47 | 167 | 0.0 | 0.9 | 0.00 | 0.00 | 0.00 | 99 | 1035.5 |
| 20260507055022 | 47 | 191 | 0.0 | 0.0 | 0.00 | 0.00 | 0.00 | 99 | 1035.3 |
| 20260507054518 | 47 | 108 | 0.9 | 2.6 | 0.00 | 0.00 | 0.00 | 99 | 1035.4 |
| 20260507054015 | 46 | 178 | 0.0 | 0.0 | 0.00 | 0.00 | 0.00 | 99 | 1035.1 |
| 20260507053513 | 46 | 186 | 0.0 | 0.0 | 0.00 | 0.00 | 0.00 | 99 | 1035.2 |
| 20260507053012 | 46 | 187 | 0.0 | 0.0 | 0.00 | 0.00 | 0.00 | 99 | 1035.2 |
| 20260507052509 | 46 | 189 | 0.0 | 0.0 | 0.00 | 0.00 | 0.00 | 99 | 1035.4 |
| 20260507052005 | 46 | 180 | 0.0 | 0.0 | 0.00 | 0.00 | 0.00 | 99 | 1035.3 |
| 20260507051503 | 46 | 188 | 0.0 | 0.0 | 0.00 | 0.00 | 0.00 | 99 | 1035.4 |
| 20260507051000 | 46 | 167 | 0.0 | 0.9 | 0.00 | 0.00 | 0.00 | 99 | 1035.4 |
| 20260507050456 | 46 | 171 | 0.9 | 1.7 | 0.00 | 0.00 | 0.00 | 99 | 1035.2 |
| 20260507045953 | 46 | 184 | 0.0 | 0.9 | 0.00 | 0.00 | 0.00 | 99 | 1035.3 |
| 20260507045449 | 46 | 184 | 0.0 | 0.0 | 0.00 | 0.00 | 0.00 | 99 | 1034.9 |
| 20260507044947 | 47 | 176 | 0.0 | 0.0 | 0.00 | 0.00 | 0.00 | 99 | 1035.0 |
| 20260507044444 | 47 | 180 | 0.0 | 0.0 | 0.00 | 0.00 | 0.00 | 99 | 1034.7 |
| 20260507043940 | 47 | 223 | 0.0 | 0.9 | 0.00 | 0.00 | 0.00 | 99 | 1035.0 |
| 20260507043436 | 47 | 202 | 0.0 | 0.0 | 0.00 | 0.00 | 0.00 | 99 | 1035.0 |
| 20260507042933 | 47 | 194 | 1.7 | 1.7 | 0.00 | 0.00 | 0.00 | 99 | 1035.2 |
| 20260507042430 | 47 | 230 | 0.9 | 0.9 | 0.00 | 0.00 | 0.00 | 99 | 1034.9 |
| 20260507041925 | 48 | 213 | 0.0 | 0.9 | 0.00 | 0.00 | 0.00 | 99 | 1035.0 |
| 20260507041422 | 48 | 249 | 1.7 | 1.7 | 0.00 | 0.00 | 0.00 | 99 | 1035.0 |
| 20260507040920 | 48 | 194 | 0.0 | 0.0 | 0.00 | 0.00 | 0.00 | 99 | 1035.1 |
| 20260507040415 | 48 | 222 | 0.0 | 0.9 | 0.00 | 0.00 | 0.00 | 99 | 1035.1 |
| 20260507035911 | 48 | 257 | 0.9 | 0.9 | 0.00 | 0.35 | 0.35 | 99 | 1035.0 |
| 20260507035408 | 49 | 195 | 0.9 | 0.9 | 0.00 | 0.35 | 0.35 | 99 | 1035.0 |
| 20260507034905 | 49 | 191 | 0.0 | 0.0 | 0.00 | 0.35 | 0.35 | 99 | 1034.8 |
| 20260507034401 | 49 | 207 | 0.0 | 0.9 | 0.00 | 0.35 | 0.35 | 99 | 1034.9 |
| 20260507033859 | 49 | 195 | 0.9 | 0.9 | 0.00 | 0.35 | 0.35 | 99 | 1034.5 |
| 20260507033357 | 50 | 202 | 0.0 | 0.9 | 0.00 | 0.35 | 0.35 | 99 | 1034.7 |
| 20260507032854 | 50 | 201 | 0.9 | 0.9 | 0.07 | 0.35 | 0.35 | 99 | 1035.0 |
| 20260507032351 | 51 | 223 | 0.9 | 0.9 | 0.19 | 0.35 | 0.35 | 99 | 1034.9 |
| 20260507031847 | 51 | 187 | 1.7 | 1.7 | 0.19 | 0.34 | 0.34 | 99 | 1034.9 |
| 20260507031344 | 51 | 281 | 0.9 | 1.7 | 0.12 | 0.32 | 0.32 | 99 | 1034.9 |
| 20260507030840 | 51 | 192 | 0.0 | 0.0 | 0.05 | 0.31 | 0.31 | 99 | 1035.2 |
| 20260507030338 | 52 | 234 | 0.9 | 1.7 | 0.00 | 0.30 | 0.30 | 99 | 1035.0 |
| 20260507025834 | 53 | 203 | 0.9 | 0.9 | 0.07 | 0.30 | 0.30 | 99 | 1034.9 |
| 20260507025332 | 54 | 203 | 1.7 | 2.6 | 0.07 | 0.30 | 0.30 | 99 | 1034.6 |
| 20260507024830 | 55 | 223 | 0.9 | 1.7 | 0.05 | 0.29 | 0.29 | 99 | 1035.1 |
| 20260507024327 | 55 | 206 | 0.0 | 0.0 | 0.05 | 0.29 | 0.29 | 99 | 1034.7 |
| 20260507023822 | 55 | 234 | 0.9 | 0.9 | 0.07 | 0.28 | 0.28 | 99 | 1034.6 |
| 20260507023319 | 55 | 197 | 0.0 | 0.0 | 0.07 | 0.28 | 0.28 | 99 | 1034.5 |
| 20260507022817 | 55 | 194 | 0.0 | 0.0 | 0.00 | 0.27 | 0.27 | 99 | 1034.4 |
| 20260507022313 | 56 | 195 | 0.9 | 0.9 | 0.00 | 0.27 | 0.27 | 99 | 1034.4 |
| 20260507021809 | 56 | 207 | 0.0 | 0.9 | 0.00 | 0.27 | 0.27 | 99 | 1034.3 |
| 20260507021305 | 56 | 198 | 0.0 | 0.0 | 0.00 | 0.27 | 0.27 | 99 | 1034.1 |
| 20260507020803 | 57 | 197 | 0.9 | 1.7 | 0.05 | 0.27 | 0.27 | 99 | 1034.0 |
| 20260507020259 | 58 | 202 | 1.7 | 1.7 | 0.05 | 0.27 | 0.27 | 99 | 1034.1 |
| 20260507015757 | 58 | 201 | 0.0 | 0.0 | 0.12 | 0.26 | 0.26 | 99 | 1034.0 |
| 20260507015254 | 58 | 198 | 0.0 | 0.0 | 0.19 | 0.26 | 0.26 | 99 | 1034.0 |
| 20260507014751 | 58 | 196 | 0.0 | 0.9 | 0.07 | 0.24 | 0.24 | 99 | 1033.9 |
| 20260507014247 | 58 | 185 | 0.9 | 1.7 | 0.00 | 0.23 | 0.23 | 99 | 1033.8 |
| 20260507013744 | 58 | 143 | 0.0 | 0.9 | 0.00 | 0.23 | 0.23 | 99 | 1034.0 |
| 20260507013241 | 58 | 177 | 0.9 | 0.9 | 0.00 | 0.23 | 0.23 | 99 | 1034.0 |
| 20260507012739 | 58 | 224 | 0.9 | 0.9 | 0.00 | 0.23 | 0.23 | 99 | 1033.9 |
| 20260507012234 | 58 | 190 | 0.0 | 0.0 | 0.00 | 0.23 | 0.23 | 99 | 1033.7 |
| 20260507011732 | 58 | 203 | 0.0 | 0.0 | 0.00 | 0.23 | 0.23 | 99 | 1033.8 |
| 20260507011228 | 58 | 175 | 0.9 | 1.7 | 0.00 | 0.23 | 0.23 | 99 | 1034.1 |
| 20260507010728 | 58 | 234 | 2.6 | 2.6 | 0.00 | 0.23 | 0.23 | 99 | 1033.9 |
| 20260507010224 | 58 | 189 | 0.0 | 0.0 | 0.00 | 0.23 | 0.23 | 99 | 1033.9 |
| 20260507005722 | 58 | 183 | 0.9 | 0.9 | 0.00 | 0.23 | 0.23 | 99 | 1034.1 |
| 20260507005218 | 58 | 196 | 0.0 | 0.9 | 0.00 | 0.23 | 0.23 | 99 | 1033.8 |
| 20260507004714 | 58 | 207 | 0.9 | 1.7 | 0.00 | 0.23 | 0.23 | 99 | 1034.0 |
| 20260507004212 | 58 | 185 | 0.0 | 0.0 | 0.00 | 0.23 | 0.23 | 99 | 1033.8 |
| 20260507003708 | 58 | 206 | 0.9 | 0.9 | 0.00 | 0.23 | 0.23 | 99 | 1033.9 |
| 20260507003203 | 58 | 195 | 0.0 | 0.0 | 0.00 | 0.23 | 0.23 | 99 | 1033.7 |
| 20260507002700 | 58 | 191 | 0.0 | 0.9 | 0.00 | 0.23 | 0.23 | 99 | 1033.8 |
| 20260507002156 | 58 | 194 | 0.9 | 1.7 | 0.00 | 0.23 | 0.23 | 99 | 1033.8 |
| 20260507001653 | 58 | 211 | 0.0 | 0.0 | 0.00 | 0.23 | 0.23 | 99 | 1034.0 |
| 20260507001150 | 58 | 195 | 0.0 | 0.0 | 0.00 | 0.23 | 0.23 | 99 | 1033.8 |
| 20260507000646 | 58 | 177 | 0.0 | 0.9 | 0.00 | 0.23 | 0.23 | 99 | 1033.8 |
| 20260507000142 | 58 | 216 | 0.9 | 0.9 | 0.00 | 0.23 | 0.23 | 99 | 1033.6 |
| 20260506235639 | 58 | 210 | 0.0 | 0.9 | 0.00 | 0.23 | 0.23 | 99 | 1033.6 |
| 20260506235139 | 58 | 194 | 0.9 | 0.9 | 0.00 | 0.23 | 0.23 | 99 | 1033.5 |
| 20260506234637 | 58 | 187 | 0.9 | 0.9 | 0.00 | 0.23 | 0.23 | 99 | 1033.4 |
| 20260506234134 | 58 | 191 | 1.7 | 2.6 | 0.00 | 0.23 | 0.23 | 99 | 1033.5 |
| 20260506233631 | 58 | 202 | 1.7 | 1.7 | 0.00 | 0.23 | 0.23 | 99 | 1033.6 |
| 20260506233128 | 58 | 162 | 0.0 | 1.7 | 0.00 | 0.23 | 0.23 | 99 | 1033.5 |
| 20260506232624 | 58 | 169 | 1.7 | 2.6 | 0.00 | 0.23 | 0.23 | 99 | 1033.6 |
| 20260506232120 | 58 | 236 | 1.7 | 1.7 | 0.00 | 0.23 | 0.23 | 99 | 1033.6 |
| 20260506231617 | 58 | 217 | 0.9 | 0.9 | 0.00 | 0.23 | 0.23 | 99 | 1033.7 |
| 20260506231115 | 58 | 179 | 1.7 | 1.7 | 0.00 | 0.23 | 0.23 | 99 | 1033.7 |
| 20260506230612 | 58 | 180 | 2.6 | 4.3 | 0.00 | 0.23 | 0.23 | 99 | 1033.7 |
| 20260506230109 | 58 | 231 | 2.6 | 4.3 | 0.00 | 0.23 | 0.23 | 99 | 1033.5 |
| 20260506225605 | 58 | 186 | 0.0 | 0.9 | 0.00 | 0.23 | 0.23 | 99 | 1033.8 |
| 20260506225102 | 58 | 190 | 0.0 | 0.0 | 0.00 | 0.23 | 0.23 | 99 | 1033.8 |
| 20260506224559 | 58 | 167 | 0.9 | 0.9 | 0.00 | 0.23 | 0.23 | 99 | 1033.6 |
| 20260506224055 | 58 | 193 | 0.0 | 0.0 | 0.00 | 0.23 | 0.23 | 99 | 1033.7 |
| 20260506223551 | 58 | 229 | 2.6 | 4.3 | 0.00 | 0.23 | 0.23 | 99 | 1033.8 |
| 20260506223048 | 58 | 160 | 1.7 | 2.6 | 0.00 | 0.23 | 0.23 | 99 | 1033.9 |
| 20260506222544 | 58 | 192 | 0.0 | 0.0 | 0.00 | 0.23 | 0.23 | 99 | 1033.9 |
| 20260506222041 | 58 | 194 | 0.9 | 1.7 | 0.00 | 0.23 | 0.23 | 99 | 1034.0 |
| 20260506221539 | 58 | 183 | 0.9 | 0.9 | 0.00 | 0.23 | 0.23 | 99 | 1034.0 |
| 20260506221036 | 58 | 215 | 1.7 | 2.6 | 0.00 | 0.23 | 0.23 | 99 | 1034.0 |
| 20260506220532 | 59 | 276 | 3.5 | 7.0 | 0.00 | 0.23 | 0.23 | 99 | 1033.9 |
| 20260506220028 | 59 | 240 | 2.6 | 5.2 | 0.00 | 0.23 | 0.23 | 99 | 1033.9 |
| 20260506215525 | 59 | 283 | 1.7 | 1.7 | 0.00 | 0.23 | 0.23 | 99 | 1034.0 |
| 20260506215020 | 59 | 220 | 0.9 | 1.7 | 0.00 | 0.23 | 0.23 | 99 | 1033.9 |
| 20260506214518 | 59 | 192 | 0.0 | 0.0 | 0.00 | 0.23 | 0.23 | 99 | 1033.9 |
| 20260506214015 | 59 | 208 | 1.7 | 2.6 | 0.05 | 0.23 | 0.23 | 99 | 1033.9 |
| 20260506213513 | 59 | 239 | 0.9 | 0.9 | 0.05 | 0.23 | 0.23 | 99 | 1034.0 |
| 20260506213010 | 59 | 248 | 2.6 | 2.6 | 0.00 | 0.22 | 0.22 | 99 | 1034.2 |
| 20260506212506 | 59 | 273 | 1.7 | 1.7 | 0.00 | 0.22 | 0.22 | 99 | 1034.1 |